Time;durP1;ratioP1;P1;durP2;ratioP2;P2;SDS_P1;SDS_P2;PMS_P1;PMS_P2;Temp;Humidity;BMP_temperature;BMP_pressure;BME280_temperature;BME280_humidity;BME280_pressure;Samples;Min_cycle;Max_cycle;Signal;HPM_P1;HPM_P2
2023/07/08 00:00:17;;;;;;;7.15;4.07;;;;;;;-143.98;0.00;101379.13;6264318;22;20177;-86
2023/07/08 00:02:48;;;;;;;6.82;4.05;;;;;;;-143.98;0.00;101379.13;6281696;22;20125;-86
2023/07/08 00:05:20;;;;;;;7.88;4.18;;;;;;;-143.98;0.00;101379.13;6259145;22;20031;-87
2023/07/08 00:08:07;;;;;;;8.95;4.35;;;;;;;-143.98;0.00;101379.13;6263122;22;20049;-86
2023/07/08 00:10:43;;;;;;;8.05;3.97;;;;;;;-143.98;0.00;101379.13;6262974;22;20150;-86
2023/07/08 00:13:25;;;;;;;12.20;4.95;;;;;;;-143.98;0.00;101379.13;6264672;22;20486;-86
2023/07/08 00:15:58;;;;;;;6.75;4.15;;;;;;;-143.98;0.00;101379.13;6262635;22;20027;-87
2023/07/08 00:18:35;;;;;;;7.88;4.43;;;;;;;-143.98;0.00;101379.13;6259731;22;20093;-86
2023/07/08 00:21:17;;;;;;;12.57;4.55;;;;;;;-143.98;0.00;101379.13;6260911;22;20027;-87
2023/07/08 00:23:53;;;;;;;8.57;4.22;;;;;;;-143.98;0.00;101379.13;6263611;22;20031;-86
2023/07/08 00:26:41;;;;;;;;;;;;;;;-143.98;0.00;101379.13;6290917;22;20101;-86
2023/07/08 00:29:17;;;;;;;8.30;4.45;;;;;;;-143.98;0.00;101379.13;6312084;22;19967;-86
2023/07/08 00:31:56;;;;;;;7.85;4.60;;;;;;;-143.98;0.00;101379.13;6266233;22;20405;-86
2023/07/08 00:34:31;;;;;;;8.93;4.70;;;;;;;-143.98;0.00;101379.13;6266751;22;20024;-86
2023/07/08 00:37:10;;;;;;;10.30;4.80;;;;;;;-143.98;0.00;101379.13;6261645;22;20023;-86
2023/07/08 00:39:45;;;;;;;9.15;4.18;;;;;;;-143.98;0.00;101379.13;6260521;22;20078;-87
2023/07/08 00:42:25;;;;;;;8.65;4.97;;;;;;;-143.98;0.00;101379.13;6260511;22;20463;-86
2023/07/08 00:44:58;;;;;;;7.28;4.18;;;;;;;-143.98;0.00;101379.13;6285948;22;20041;-86
2023/07/08 00:47:28;;;;;;;7.25;4.95;;;;;;;-143.98;0.00;101379.13;6260313;22;20023;-87
2023/07/08 00:50:00;;;;;;;6.50;4.10;;;;;;;-143.98;0.00;101379.13;6259853;22;20039;-87
2023/07/08 00:52:31;;;;;;;8.68;3.70;;;;;;;-143.98;0.00;101379.13;6260582;22;20051;-86
2023/07/08 00:55:08;;;;;;;8.80;4.82;;;;;;;-143.98;0.00;101379.13;6256228;22;20032;-86
2023/07/08 00:57:46;;;;;;;8.63;4.63;;;;;;;-143.98;0.00;101379.13;6229522;22;20160;-86
2023/07/08 01:00:19;;;;;;;6.43;4.25;;;;;;;-143.98;0.00;101379.13;6256561;22;20024;-86
2023/07/08 01:03:02;;;;;;;11.30;5.30;;;;;;;-143.98;0.00;101379.13;6226633;22;20112;-86
2023/07/08 01:05:48;;;;;;;9.80;4.65;;;;;;;-143.98;0.00;101379.13;6232045;22;20302;-86
2023/07/08 01:08:28;;;;;;;10.88;4.45;;;;;;;-143.98;0.00;101379.13;6255919;22;20055;-86
2023/07/08 01:11:01;;;;;;;8.82;4.93;;;;;;;-143.98;0.00;101379.13;6257335;22;20143;-86
2023/07/08 01:13:37;;;;;;;12.63;4.03;;;;;;;-143.98;0.00;101379.13;6233716;22;20038;-86
2023/07/08 01:16:12;;;;;;;12.43;4.75;;;;;;;-143.98;0.00;101379.13;6255148;22;20034;-86
2023/07/08 01:18:52;;;;;;;11.55;4.78;;;;;;;-143.98;0.00;101379.13;6231726;22;20028;-86
2023/07/08 01:21:49;;;;;;;8.88;4.85;;;;;;;-143.98;0.00;101379.13;6262344;22;20021;-86
2023/07/08 01:24:19;;;;;;;11.27;4.55;;;;;;;-143.98;0.00;101379.13;6266916;22;20024;-86
2023/07/08 01:26:58;;;;;;;6.50;3.90;;;;;;;-143.98;0.00;101379.13;6234242;22;20028;-86
2023/07/08 01:29:37;;;;;;;7.43;5.22;;;;;;;-143.98;0.00;101379.13;6236966;22;20110;-86
2023/07/08 01:32:05;;;;;;;10.98;5.07;;;;;;;-143.98;0.00;101379.13;6255136;22;20055;-86
2023/07/08 01:35:00;;;;;;;9.02;4.90;;;;;;;-143.98;0.00;101379.13;6262237;22;20036;-86
2023/07/08 01:37:54;;;;;;;10.77;5.07;;;;;;;-143.98;0.00;101379.13;6231413;22;20090;-85
2023/07/08 01:40:39;;;;;;;8.35;4.57;;;;;;;-143.98;0.00;101379.13;6259802;22;20152;-86
2023/07/08 01:43:32;;;;;;;8.65;4.60;;;;;;;-143.98;0.00;101379.13;6261370;22;20475;-86
2023/07/08 01:46:11;;;;;;;10.55;4.78;;;;;;;-143.98;0.00;101379.13;6232989;22;20110;-86
2023/07/08 01:48:48;;;;;;;7.03;4.35;;;;;;;-143.98;0.00;101379.13;6233037;22;20047;-86
2023/07/08 01:51:16;;;;;;;7.18;4.78;;;;;;;-143.98;0.00;101379.13;6255224;22;20023;-85
2023/07/08 01:53:52;;;;;;;10.63;4.53;;;;;;;-143.98;0.00;101379.13;6231345;22;20393;-86
2023/07/08 01:56:24;;;;;;;9.70;4.57;;;;;;;-143.98;0.00;101379.13;6237251;22;20027;-86
2023/07/08 01:59:00;;;;;;;14.30;5.50;;;;;;;-143.98;0.00;101379.13;6257719;22;20034;-86
2023/07/08 02:01:35;;;;;;;9.63;5.20;;;;;;;-143.98;0.00;101379.13;6230188;22;20382;-86
2023/07/08 02:04:07;;;;;;;15.30;5.25;;;;;;;-143.98;0.00;101379.13;6258995;22;20348;-86
2023/07/08 02:06:38;;;;;;;6.45;4.75;;;;;;;-143.98;0.00;101379.13;6232974;22;20126;-86
2023/07/08 02:09:12;;;;;;;11.68;5.63;;;;;;;-143.98;0.00;101379.13;6231662;22;20027;-86
2023/07/08 02:11:42;;;;;;;7.88;4.47;;;;;;;-143.98;0.00;101379.13;6256891;22;20083;-86
2023/07/08 02:14:11;;;;;;;8.07;4.72;;;;;;;-143.98;0.00;101379.13;6232793;22;20027;-86
2023/07/08 02:17:08;;;;;;;10.65;5.30;;;;;;;-143.98;0.00;101379.13;6233468;22;20027;-85
2023/07/08 02:19:36;;;;;;;10.15;5.53;;;;;;;-143.98;0.00;101379.13;6201196;22;20028;-85
2023/07/08 02:22:06;;;;;;;9.32;4.95;;;;;;;-143.98;0.00;101379.13;6230908;22;20027;-86
2023/07/08 02:24:46;;;;;;;8.32;5.13;;;;;;;-143.98;0.00;101379.13;6242566;22;20039;-86
2023/07/08 02:27:32;;;;;;;12.52;5.40;;;;;;;-143.98;0.00;101379.13;6278239;22;20010;-86
2023/07/08 02:30:18;;;;;;;6.57;5.07;;;;;;;-143.98;0.00;101379.13;6265150;22;20313;-85
2023/07/08 02:32:56;;;;;;;9.45;5.07;;;;;;;-143.98;0.00;101379.13;6231961;22;20066;-86
2023/07/08 02:35:32;;;;;;;11.32;5.65;;;;;;;-143.98;0.00;101379.13;6235254;22;20082;-85
2023/07/08 02:38:21;;;;;;;9.48;5.60;;;;;;;-143.98;0.00;101379.13;6256690;22;20398;-86
2023/07/08 02:41:08;;;;;;;8.57;5.63;;;;;;;-143.98;0.00;101379.13;6259630;22;20026;-86
2023/07/08 02:43:48;;;;;;;8.48;5.28;;;;;;;-143.98;0.00;101379.13;6234605;22;20031;-86
2023/07/08 02:46:31;;;;;;;13.05;6.18;;;;;;;-143.98;0.00;101379.13;6236144;22;20241;-86
2023/07/08 02:49:01;;;;;;;10.52;6.38;;;;;;;-143.98;0.00;101379.13;6232164;22;20054;-86
2023/07/08 02:51:36;;;;;;;10.48;6.75;;;;;;;-143.98;0.00;101379.13;6254002;22;20028;-86
2023/07/08 02:54:23;;;;;;;14.73;7.60;;;;;;;-143.98;0.00;101379.13;6229771;22;20085;-86
2023/07/08 02:56:53;;;;;;;12.32;7.60;;;;;;;-143.98;0.00;101379.13;6236103;22;20034;-87
2023/07/08 02:59:30;;;;;;;19.63;7.78;;;;;;;-143.98;0.00;101379.13;6234545;22;20039;-87
2023/07/08 03:02:27;;;;;;;16.20;7.40;;;;;;;-143.98;0.00;101379.13;6241019;22;20027;-86
2023/07/08 03:04:58;;;;;;;13.35;6.60;;;;;;;-143.98;0.00;101379.13;6228325;22;20046;-87
2023/07/08 03:07:28;;;;;;;12.90;7.28;;;;;;;-143.98;0.00;101379.13;6255169;22;20122;-87
2023/07/08 03:09:58;;;;;;;10.70;7.20;;;;;;;-143.98;0.00;101379.13;6253762;22;20031;-86
2023/07/08 03:12:27;;;;;;;12.10;6.68;;;;;;;-143.98;0.00;101379.13;6230148;22;20027;-86
2023/07/08 03:14:58;;;;;;;13.10;7.07;;;;;;;-143.98;0.00;101379.13;6258790;22;20024;-86
2023/07/08 03:17:25;;;;;;;13.30;7.53;;;;;;;-143.98;0.00;101379.13;6231325;22;20028;-87
2023/07/08 03:19:59;;;;;;;13.25;7.28;;;;;;;-143.98;0.00;101379.13;6233290;22;20038;-86
2023/07/08 03:22:54;;;;;;;10.37;7.97;;;;;;;-143.98;0.00;101379.13;6240475;22;20031;-86
2023/07/08 03:25:29;;;;;;;14.02;7.43;;;;;;;-143.98;0.00;101379.13;6234224;22;20101;-86
2023/07/08 03:28:01;;;;;;;12.93;7.30;;;;;;;-143.98;0.00;101379.13;6233386;22;20077;-86
2023/07/08 03:30:30;;;;;;;13.52;6.55;;;;;;;-143.98;0.00;101379.13;6257565;22;20313;-86
2023/07/08 03:32:57;;;;;;;11.18;7.03;;;;;;;-143.98;0.00;101379.13;6257058;22;20102;-87
2023/07/08 03:35:48;;;;;;;12.77;6.88;;;;;;;-143.98;0.00;101379.13;6238836;22;20054;-87
2023/07/08 03:38:18;;;;;;;11.57;6.97;;;;;;;-143.98;0.00;101379.13;6234528;22;20043;-85
2023/07/08 03:40:48;;;;;;;12.32;7.18;;;;;;;-143.98;0.00;101379.13;6235852;22;20210;-85
2023/07/08 03:43:41;;;;;;;9.48;7.57;;;;;;;-143.98;0.00;101379.13;6235812;22;20051;-85
2023/07/08 03:46:12;;;;;;;17.73;7.43;;;;;;;-143.98;0.00;101379.13;6256840;22;20039;-85
2023/07/08 03:48:47;;;;;;;13.65;6.78;;;;;;;-143.98;0.00;101379.13;6257613;22;20194;-86
2023/07/08 03:51:45;;;;;;;;;;;;;;;;;;;;;
2023/07/08 03:54:17;;;;;;;13.63;7.07;;;;;;;-143.98;0.00;101379.13;6293271;22;20054;-86
2023/07/08 03:56:48;;;;;;;11.60;7.45;;;;;;;-143.98;0.00;101379.13;6259921;22;20193;-86
2023/07/08 03:59:18;;;;;;;12.45;6.60;;;;;;;-143.98;0.00;101379.13;6232347;22;20031;-87
2023/07/08 04:02:13;;;;;;;13.85;7.53;;;;;;;-143.98;0.00;101379.13;6248622;22;20027;-86
2023/07/08 04:05:06;;;;;;;14.82;6.85;;;;;;;-143.98;0.00;101379.13;6238789;22;20097;-86
2023/07/08 04:07:36;;;;;;;11.73;7.15;;;;;;;-143.98;0.00;101379.13;6256017;22;20374;-87
2023/07/08 04:10:06;;;;;;;17.17;6.60;;;;;;;-143.98;0.00;101379.13;6231254;22;20394;-86
2023/07/08 04:12:41;;;;;;;12.60;6.55;;;;;;;-143.98;0.00;101379.13;6253949;22;20248;-86
2023/07/08 04:15:11;;;;;;;11.10;6.53;;;;;;;-143.98;0.00;101379.13;6232324;22;20074;-86
2023/07/08 04:17:49;;;;;;;8.10;5.65;;;;;;;-143.98;0.00;101379.13;6230724;22;20035;-87
2023/07/08 04:20:25;;;;;;;9.85;5.15;;;;;;;-143.98;0.00;101379.13;6229842;22;20034;-86
2023/07/08 04:23:06;;;;;;;8.27;5.65;;;;;;;-143.98;0.00;101379.13;6230350;22;20053;-86
2023/07/08 04:26:28;;;;;;;7.53;4.45;;;;;;;-143.98;0.00;101379.13;6257132;22;20054;-86
2023/07/08 04:29:20;;;;;;;13.18;5.20;;;;;;;-143.98;0.00;101379.13;6150541;23;20025;-86
2023/07/08 04:31:51;;;;;;;11.45;5.57;;;;;;;-143.98;0.00;101379.13;6138856;23;20029;-86
2023/07/08 04:34:23;;;;;;;6.32;4.85;;;;;;;-143.98;0.00;101379.13;6237266;22;20111;-86
2023/07/08 04:36:52;;;;;;;14.05;5.50;;;;;;;-143.98;0.00;101379.13;6280540;22;20023;-87
2023/07/08 04:39:27;;;;;;;10.38;4.80;;;;;;;-143.98;0.00;101379.13;6230870;22;20110;-86
2023/07/08 04:42:02;;;;;;;12.38;5.60;;;;;;;-143.98;0.00;101379.13;6232360;22;20209;-87
2023/07/08 04:44:49;;;;;;;9.35;4.85;;;;;;;-143.98;0.00;101379.13;6254429;22;20028;-87
2023/07/08 04:47:36;;;;;;;8.30;4.53;;;;;;;-143.98;0.00;101379.13;6227132;22;20031;-87
2023/07/08 04:50:12;;;;;;;8.75;4.57;;;;;;;-143.98;0.00;101379.13;6255513;22;20051;-86
2023/07/08 04:52:43;;;;;;;7.00;4.38;;;;;;;-143.98;0.00;101379.13;6229937;22;20028;-87
2023/07/08 04:55:13;;;;;;;10.88;4.60;;;;;;;-143.98;0.00;101379.13;6230360;22;20107;-86
2023/07/08 04:57:46;;;;;;;10.23;4.53;;;;;;;-143.98;0.00;101379.13;6205113;22;20032;-86
2023/07/08 05:00:17;;;;;;;6.90;4.18;;;;;;;-143.98;0.00;101379.13;6255373;22;20099;-86
2023/07/08 05:02:46;;;;;;;10.98;4.82;;;;;;;-143.98;0.00;101379.13;6231454;22;20054;-86
2023/07/08 05:05:22;;;;;;;9.57;4.18;;;;;;;-143.98;0.00;101379.13;6257325;22;20028;-85
2023/07/08 05:07:57;;;;;;;4.88;4.13;;;;;;;-143.98;0.00;101379.13;6232285;22;20034;-86
2023/07/08 05:10:24;;;;;;;9.25;5.03;;;;;;;-143.98;0.00;101379.13;6254388;22;20028;-86
2023/07/08 05:13:00;;;;;;;6.35;4.10;;;;;;;-143.98;0.00;101379.13;6230996;22;20058;-86
2023/07/08 05:15:33;;;;;;;6.50;4.00;;;;;;;-143.98;0.00;101379.13;6256977;22;20243;-86
2023/07/08 05:18:07;;;;;;;11.07;3.95;;;;;;;-143.98;0.00;101379.13;6247632;22;20042;-86
2023/07/08 05:20:54;;;;;;;5.07;3.67;;;;;;;-143.98;0.00;101379.13;6262862;22;20033;-86
2023/07/08 05:23:44;;;;;;;5.05;3.63;;;;;;;-143.98;0.00;101379.13;6256016;22;20068;-86
2023/07/08 05:26:11;;;;;;;7.55;3.85;;;;;;;-143.98;0.00;101379.13;6228647;22;20032;-86
2023/07/08 05:28:50;;;;;;;5.30;4.05;;;;;;;-143.98;0.00;101379.13;6255948;22;20047;-86
2023/07/08 05:31:17;;;;;;;5.70;3.65;;;;;;;-143.98;0.00;101379.13;6228535;22;20038;-86
2023/07/08 05:33:52;;;;;;;6.93;3.70;;;;;;;-143.98;0.00;101379.13;6232600;22;20028;-87
2023/07/08 05:36:31;;;;;;;5.65;2.97;;;;;;;-143.98;0.00;101379.13;6230646;22;20102;-86
2023/07/08 05:39:13;;;;;;;5.28;3.47;;;;;;;-143.98;0.00;101379.13;6227236;22;20315;-86
2023/07/08 05:41:45;;;;;;;7.53;3.10;;;;;;;-143.98;0.00;101379.13;6229345;22;20086;-86
2023/07/08 05:44:22;;;;;;;6.65;3.28;;;;;;;-143.98;0.00;101379.13;6231841;22;20255;-86
2023/07/08 05:46:57;;;;;;;6.65;3.25;;;;;;;-143.98;0.00;101379.13;6278215;22;20042;-86
2023/07/08 05:49:30;;;;;;;11.55;3.33;;;;;;;-143.98;0.00;101379.13;6227167;22;20024;-86
2023/07/08 05:52:25;;;;;;;4.10;2.97;;;;;;;-143.98;0.00;101379.13;6238771;22;20285;-86
2023/07/08 05:55:07;;;;;;;4.70;2.75;;;;;;;-143.98;0.00;101379.13;6228209;22;20081;-86
2023/07/08 05:57:37;;;;;;;4.70;3.08;;;;;;;-143.98;0.00;101379.13;6254239;22;20102;-86
2023/07/08 06:00:08;;;;;;;4.32;2.95;;;;;;;-143.98;0.00;101379.13;6230266;22;20423;-86
2023/07/08 06:02:35;;;;;;;6.68;3.00;;;;;;;-143.98;0.00;101379.13;6251564;22;20027;-86
2023/07/08 06:05:05;;;;;;;6.82;3.17;;;;;;;-143.98;0.00;101379.13;6229374;22;20424;-86
2023/07/08 06:07:32;;;;;;;4.07;2.80;;;;;;;-143.98;0.00;101379.13;6251509;22;20360;-86
2023/07/08 06:10:04;;;;;;;7.10;2.70;;;;;;;-143.98;0.00;101379.13;6226150;22;20032;-86
2023/07/08 06:12:36;;;;;;;7.88;2.85;;;;;;;-143.98;0.00;101379.13;6221292;23;20028;-85
2023/07/08 06:15:12;;;;;;;8.38;3.25;;;;;;;-143.98;0.00;101379.13;6199642;23;20402;-86
2023/07/08 06:18:05;;;;;;;10.25;3.17;;;;;;;-143.98;0.00;101379.13;6211254;23;20476;-86
2023/07/08 06:20:42;;;;;;;3.55;2.20;;;;;;;-143.98;0.00;101379.13;6208631;22;20012;-86
2023/07/08 06:23:19;;;;;;;4.40;2.40;;;;;;;-143.98;0.00;101379.13;6203934;23;20132;-86
2023/07/08 06:26:03;;;;;;;2.58;1.95;;;;;;;-143.98;0.00;101379.13;6224546;23;20036;-85
2023/07/08 06:28:37;;;;;;;5.28;2.45;;;;;;;-143.98;0.00;101379.13;6194971;23;20026;-85
2023/07/08 06:31:15;;;;;;;5.28;2.72;;;;;;;-143.98;0.00;101379.13;6197038;23;20330;-86
2023/07/08 06:33:46;;;;;;;13.85;2.90;;;;;;;-143.98;0.00;101379.13;6223341;23;20031;-85
2023/07/08 06:36:15;;;;;;;7.53;2.97;;;;;;;-143.98;0.00;101379.13;6196570;23;20079;-86
2023/07/08 06:38:51;;;;;;;5.00;2.63;;;;;;;-143.98;0.00;101379.13;6222288;23;20303;-86
2023/07/08 06:41:24;;;;;;;7.60;2.50;;;;;;;-143.98;0.00;101379.13;6197786;23;20325;-86
2023/07/08 06:43:58;;;;;;;4.80;2.78;;;;;;;-143.98;0.00;101379.13;6201515;23;20107;-86
2023/07/08 06:46:54;;;;;;;4.28;2.53;;;;;;;-143.98;0.00;101379.13;6200913;23;20051;-86
2023/07/08 06:49:28;;;;;;;4.57;2.60;;;;;;;-143.98;0.00;101379.13;6199951;23;20205;-88
2023/07/08 06:52:19;;;;;;;7.97;2.35;;;;;;;-143.98;0.00;101379.13;6223325;23;20028;-88
2023/07/08 06:54:50;;;;;;;4.55;2.83;;;;;;;-143.98;0.00;101379.13;6202495;23;20188;-88
2023/07/08 06:57:22;;;;;;;5.57;2.80;;;;;;;-143.98;0.00;101379.13;6201228;23;20024;-88
2023/07/08 06:59:50;;;;;;;5.35;3.13;;;;;;;-143.98;0.00;101379.13;6223957;23;20382;-89
2023/07/08 07:02:29;;;;;;;8.82;2.55;;;;;;;-143.98;0.00;101379.13;6247580;23;20115;-87
2023/07/08 07:04:58;;;;;;;3.22;2.33;;;;;;;-143.98;0.00;101379.13;6223054;23;20028;-87
2023/07/08 07:07:25;;;;;;;5.05;2.45;;;;;;;-143.98;0.00;101379.13;6198139;23;20086;-87
2023/07/08 07:09:54;;;;;;;6.78;2.13;;;;;;;-143.98;0.00;101379.13;6198227;23;20094;-85
2023/07/08 07:12:25;;;;;;;6.80;2.67;;;;;;;-143.98;0.00;101379.13;6232167;22;20281;-85
2023/07/08 07:15:03;;;;;;;5.20;2.42;;;;;;;-143.98;0.00;101379.13;6254153;22;20044;-85
2023/07/08 07:17:36;;;;;;;4.63;2.42;;;;;;;-143.98;0.00;101379.13;6232469;22;20046;-85
2023/07/08 07:20:17;;;;;;;3.47;2.33;;;;;;;-143.98;0.00;101379.13;6221624;22;20034;-86
2023/07/08 07:22:56;;;;;;;6.10;2.78;;;;;;;-143.98;0.00;101379.13;6227626;22;20027;-85
2023/07/08 07:25:24;;;;;;;6.22;2.35;;;;;;;-143.98;0.00;101379.13;6228674;22;20201;-86
2023/07/08 07:27:56;;;;;;;5.35;2.60;;;;;;;-143.98;0.00;101379.13;6229655;22;20394;-86
2023/07/08 07:30:24;;;;;;;3.53;2.22;;;;;;;-143.98;0.00;101379.13;6257309;22;20016;-86
2023/07/08 07:32:56;;;;;;;11.85;2.50;;;;;;;-143.98;0.00;101379.13;6227558;22;20069;-86
2023/07/08 07:38:29;;;;;;;5.65;2.83;;;;;;;-143.98;0.00;101379.13;6254444;22;20027;-86
2023/07/08 07:41:20;;;;;;;6.20;3.08;;;;;;;-143.98;0.00;101379.13;6220897;22;20031;-86
2023/07/08 07:43:51;;;;;;;4.07;2.15;;;;;;;-143.98;0.00;101379.13;6248086;22;20034;-86
2023/07/08 07:46:21;;;;;;;8.30;2.28;;;;;;;-143.98;0.00;101379.13;6228518;22;20107;-87
2023/07/08 07:49:02;;;;;;;4.82;2.58;;;;;;;-143.98;0.00;101379.13;6255047;22;20426;-87
2023/07/08 07:51:46;;;;;;;6.13;2.58;;;;;;;-143.98;0.00;101379.13;6254648;22;20032;-86
2023/07/08 07:54:18;;;;;;;5.43;2.25;;;;;;;-143.98;0.00;101379.13;6228329;22;20050;-87
2023/07/08 07:56:49;;;;;;;5.43;2.47;;;;;;;-143.98;0.00;101379.13;6251490;22;20375;-87
2023/07/08 07:59:17;;;;;;;3.20;2.28;;;;;;;-143.98;0.00;101379.13;6250127;22;20190;-87
2023/07/08 08:01:47;;;;;;;7.75;2.10;;;;;;;-143.98;0.00;101379.13;6222989;22;20028;-87
2023/07/08 08:04:29;;;;;;;3.25;2.40;;;;;;;-143.98;0.00;101379.13;6228080;22;20085;-86
2023/07/08 08:06:59;;;;;;;4.82;2.85;;;;;;;-143.98;0.00;101379.13;6228152;22;20039;-87
2023/07/08 08:09:29;;;;;;;2.78;2.30;;;;;;;-143.98;0.00;101379.13;6254364;22;20079;-86
2023/07/08 08:11:56;;;;;;;9.57;2.88;;;;;;;-143.98;0.00;101379.13;6224518;22;20164;-86
2023/07/08 08:14:27;;;;;;;4.47;2.38;;;;;;;-143.98;0.00;101379.13;6253040;22;20016;-86
2023/07/08 08:17:03;;;;;;;8.35;2.53;;;;;;;-143.98;0.00;101379.13;6227630;22;20032;-87
2023/07/08 08:19:45;;;;;;;3.80;2.20;;;;;;;-143.98;0.00;101379.13;6243657;22;20055;-87
2023/07/08 08:22:28;;;;;;;3.47;2.30;;;;;;;-143.98;0.00;101379.13;6221031;22;20027;-88
2023/07/08 08:24:58;;;;;;;3.85;2.75;;;;;;;-143.98;0.00;101379.13;6246310;22;20031;-88
2023/07/08 08:27:28;;;;;;;4.20;2.80;;;;;;;-143.98;0.00;101379.13;6246815;22;20028;-89
2023/07/08 08:29:56;;;;;;;3.45;2.40;;;;;;;-143.98;0.00;101379.13;6220879;22;20085;-89
2023/07/08 08:32:25;;;;;;;5.20;2.40;;;;;;;-143.98;0.00;101379.13;6244336;22;20169;-89
2023/07/08 08:35:02;;;;;;;3.50;2.10;;;;;;;-143.98;0.00;101379.13;6244346;22;20093;-88
2023/07/08 08:37:43;;;;;;;4.00;2.40;;;;;;;-143.98;0.00;101379.13;6222848;22;20027;-89
2023/07/08 08:40:14;;;;;;;3.92;2.33;;;;;;;-143.98;0.00;101379.13;6220413;22;20128;-89
2023/07/08 08:42:53;;;;;;;3.92;2.72;;;;;;;-143.98;0.00;101379.13;6226421;22;20043;-89
2023/07/08 08:45:21;;;;;;;3.67;2.45;;;;;;;-143.98;0.00;101379.13;6232929;22;20268;-89
2023/07/08 08:48:06;;;;;;;5.68;2.63;;;;;;;-143.98;0.00;101379.13;6246791;22;20032;-89
2023/07/08 08:50:48;;;;;;;6.57;2.27;;;;;;;-143.98;0.00;101379.13;6220611;22;20038;-88
2023/07/08 08:53:24;;;;;;;7.28;2.60;;;;;;;-143.98;0.00;101379.13;6276561;22;20079;-89
2023/07/08 08:56:05;;;;;;;6.20;2.60;;;;;;;-143.98;0.00;101379.13;6228405;22;20028;-89
2023/07/08 08:59:04;;;;;;;4.82;2.47;;;;;;;-143.98;0.00;101379.13;6229314;22;20020;-90
2023/07/08 09:01:41;;;;;;;5.88;2.50;;;;;;;-143.98;0.00;101379.13;6151131;23;20030;-89
2023/07/08 09:04:16;;;;;;;5.60;2.53;;;;;;;-143.98;0.00;101379.13;6247523;22;20055;-88
2023/07/08 09:06:50;;;;;;;4.80;2.42;;;;;;;-143.98;0.00;101379.13;6246173;22;20054;-89
2023/07/08 09:09:39;;;;;;;5.55;2.63;;;;;;;-143.98;0.00;101379.13;6223405;22;20024;-89
2023/07/08 09:12:14;;;;;;;4.25;2.13;;;;;;;-143.98;0.00;101379.13;6220295;22;20032;-89
2023/07/08 09:14:45;;;;;;;3.13;2.28;;;;;;;-143.98;0.00;101379.13;6222934;22;20047;-89
2023/07/08 09:17:34;;;;;;;5.72;2.30;;;;;;;-143.98;0.00;101379.13;6224477;22;20031;-90
2023/07/08 09:20:24;;;;;;;6.30;2.33;;;;;;;-143.98;0.00;101379.13;6250311;22;20034;-89
2023/07/08 09:23:29;;;;;;;4.72;2.20;;;;;;;-143.98;0.00;101379.13;6252422;22;20070;-89
2023/07/08 09:26:22;;;;;;;4.30;2.20;;;;;;;-143.98;0.00;101379.13;6283864;22;20034;-89
2023/07/08 09:29:09;;;;;;;;;;;;;;;;;;;;;
2023/07/08 09:31:54;;;;;;;4.88;2.60;;;;;;;-143.98;0.00;101379.13;6274014;22;20107;-88
2023/07/08 09:34:46;;;;;;;3.67;2.22;;;;;;;-143.98;0.00;101379.13;6249502;22;20600;-88
2023/07/08 09:37:32;;;;;;;3.30;2.30;;;;;;;-143.98;0.00;101379.13;6228215;22;20027;-89
2023/07/08 09:40:22;;;;;;;9.75;2.30;;;;;;;-143.98;0.00;101379.13;6250275;22;20031;-88
2023/07/08 09:43:17;;;;;;;7.55;2.35;;;;;;;-143.98;0.00;101379.13;6224883;22;20032;-88
2023/07/08 09:45:57;;;;;;;5.18;2.55;;;;;;;-143.98;0.00;101379.13;6276883;22;20023;-88
2023/07/08 09:48:37;;;;;;;4.25;2.10;;;;;;;-143.98;0.00;101379.13;6225547;22;20475;-90
2023/07/08 09:51:08;;;;;;;5.55;2.20;;;;;;;-143.98;0.00;101379.13;6262410;22;20019;-88
2023/07/08 09:53:38;;;;;;;4.72;2.50;;;;;;;-143.98;0.00;101379.13;6275692;22;20076;-89
2023/07/08 09:56:19;;;;;;;6.82;2.47;;;;;;;-143.98;0.00;101379.13;6267146;22;20270;-89
2023/07/08 09:58:53;;;;;;;6.50;2.20;;;;;;;-143.98;0.00;101379.13;6252119;22;20024;-89
2023/07/08 10:01:27;;;;;;;4.38;2.20;;;;;;;-143.98;0.00;101379.13;6252568;22;20050;-88
2023/07/08 10:04:12;;;;;;;3.67;2.25;;;;;;;-143.98;0.00;101379.13;6277344;22;20027;-89
2023/07/08 10:06:46;;;;;;;5.68;2.38;;;;;;;-143.98;0.00;101379.13;6251097;22;20019;-89
2023/07/08 10:09:20;;;;;;;6.05;2.70;;;;;;;-143.98;0.00;101379.13;6227105;22;20050;-89
2023/07/08 10:11:58;;;;;;;;;;;;;;;-143.98;0.00;101379.13;6226333;22;20043;-89
2023/07/08 10:14:57;;;;;;;2.83;2.42;;;;;;;-143.98;0.00;101379.13;6220486;22;19926;-89
2023/07/08 10:17:25;;;;;;;6.78;2.10;;;;;;;-143.98;0.00;101379.13;6224993;22;20085;-88
2023/07/08 10:19:52;;;;;;;3.45;2.05;;;;;;;-143.98;0.00;101379.13;6225387;22;20039;-87
2023/07/08 10:22:46;;;;;;;3.53;2.08;;;;;;;-143.98;0.00;101379.13;6225866;22;20027;-87
2023/07/08 10:25:30;;;;;;;3.42;2.13;;;;;;;-143.98;0.00;101379.13;6228520;22;20102;-88
2023/07/08 10:28:15;;;;;;;2.72;2.10;;;;;;;-143.98;0.00;101379.13;6253377;22;20071;-87
2023/07/08 10:30:59;;;;;;;3.72;2.35;;;;;;;-143.98;0.00;101379.13;6254460;22;20110;-87
2023/07/08 10:34:05;;;;;;;5.25;2.60;;;;;;;-143.98;0.00;101379.13;6253359;22;20337;-87
2023/07/08 10:37:24;;;;;;;8.35;2.38;;;;;;;-143.98;0.00;101379.13;6283230;22;20028;-87
2023/07/08 10:40:10;;;;;;;3.00;2.25;;;;;;;-143.98;0.00;101379.13;6206977;22;20046;-87
2023/07/08 10:43:04;;;;;;;4.57;2.60;;;;;;;-143.98;0.00;101379.13;6203005;23;20177;-87
2023/07/08 10:46:37;;;;;;;5.07;2.78;;;;;;;-143.98;0.00;101379.13;6195801;23;20373;-87
2023/07/08 10:49:30;;;;;;;6.65;2.10;;;;;;;-143.98;0.00;101379.13;6140320;23;20026;-86
2023/07/08 10:52:19;;;;;;;3.40;1.83;;;;;;;-143.98;0.00;101379.13;6211394;23;20016;-87
2023/07/08 10:55:10;;;;;;;4.45;2.50;;;;;;;-143.98;0.00;101379.13;6255327;22;20028;-87
2023/07/08 10:58:20;;;;;;;3.35;2.10;;;;;;;-143.98;0.00;101379.13;6230523;23;20028;-87
2023/07/08 11:01:20;;;;;;;8.75;2.30;;;;;;;-143.98;0.00;101379.13;6200251;22;20070;-86
2023/07/08 11:04:26;;;;;;;4.40;2.75;;;;;;;-143.98;0.00;101379.13;6229068;22;20102;-87
2023/07/08 11:07:02;;;;;;;5.78;2.30;;;;;;;-143.98;0.00;101379.13;6231101;23;20032;-87
2023/07/08 11:10:01;;;;;;;4.10;2.15;;;;;;;-143.98;0.00;101379.13;6202705;23;20028;-86
2023/07/08 11:13:09;;;;;;;5.70;2.33;;;;;;;-143.98;0.00;101379.13;6231199;23;20184;-87
2023/07/08 11:15:52;;;;;;;3.28;2.33;;;;;;;-143.98;0.00;101379.13;6145368;23;20138;-88
2023/07/08 11:18:54;;;;;;;4.85;2.40;;;;;;;-143.98;0.00;101379.13;6193807;23;20027;-87
2023/07/08 11:21:26;;;;;;;5.13;2.47;;;;;;;-143.98;0.00;101379.13;6216920;23;20253;-87
2023/07/08 11:24:29;;;;;;;3.47;2.22;;;;;;;-143.98;0.00;101379.13;6193253;23;20052;-87
2023/07/08 11:27:24;;;;;;;6.55;2.47;;;;;;;-143.98;0.00;101379.13;6219626;23;20098;-87
2023/07/08 11:30:29;;;;;;;6.03;2.38;;;;;;;-143.98;0.00;101379.13;6194113;23;20107;-86
2023/07/08 11:33:04;;;;;;;4.05;2.47;;;;;;;-143.98;0.00;101379.13;6205754;23;20028;-86
2023/07/08 11:36:05;;;;;;;3.55;2.20;;;;;;;-143.98;0.00;101379.13;6199813;23;20024;-87
2023/07/08 11:38:53;;;;;;;4.03;2.42;;;;;;;-143.98;0.00;101379.13;6220294;23;20028;-87
2023/07/08 11:41:32;;;;;;;4.38;2.47;;;;;;;-143.98;0.00;101379.13;6195658;23;20028;-87
2023/07/08 11:44:16;;;;;;;3.65;2.78;;;;;;;-143.98;0.00;101379.13;6194194;23;20035;-87
2023/07/08 11:47:24;;;;;;;7.35;2.85;;;;;;;-143.98;0.00;101379.13;6202948;23;20102;-87
2023/07/08 11:50:00;;;;;;;4.90;2.53;;;;;;;-143.98;0.00;101379.13;6194702;23;20035;-88
2023/07/08 11:52:36;;;;;;;5.15;2.53;;;;;;;-143.98;0.00;101379.13;6198375;23;20182;-87
2023/07/08 11:55:13;;;;;;;6.28;2.85;;;;;;;-143.98;0.00;101379.13;6191143;23;20042;-87
2023/07/08 11:57:44;;;;;;;4.68;2.35;;;;;;;-143.98;0.00;101379.13;6197527;23;20019;-87
2023/07/08 12:00:22;;;;;;;8.65;2.92;;;;;;;-143.98;0.00;101379.13;6216703;23;20189;-87
2023/07/08 12:02:59;;;;;;;3.90;2.47;;;;;;;-143.98;0.00;101379.13;6217266;23;20024;-87
2023/07/08 12:05:35;;;;;;;4.10;2.60;;;;;;;-143.98;0.00;101379.13;6192188;23;20133;-87
2023/07/08 12:08:17;;;;;;;4.70;2.50;;;;;;;-143.98;0.00;101379.13;6214726;23;20329;-87
2023/07/08 12:10:54;;;;;;;3.70;2.42;;;;;;;-143.98;0.00;101379.13;6192535;23;20295;-85
2023/07/08 12:13:31;;;;;;;6.55;2.75;;;;;;;-143.98;0.00;101379.13;6215825;23;20024;-86
2023/07/08 12:16:20;;;;;;;4.10;2.80;;;;;;;-143.98;0.00;101379.13;6191322;23;20027;-86